Terminal Aerodrome Forecast
Issued by NWS Duluth, MN

Home | Current Version | Previous Version | Text Only | Print | Product List | Glossary On
Versions: 1 2 3 4 5 6 7 8 9 10 11 12 13 14 15 16 17 18 19 20
000
FTUS43 KDLH 202336
TAFINL
TAF
KINL 202336Z 2100/2124 12006KT P6SM -RA OVC009
     FM210200 12005KT 1 1/2SM -SNRA BR OVC007=

USA.gov is the U.S. government's official web portal to all federal, state and local government web resources and services.